createdAt,value
2023-01-09T00:00:06.007Z,3.60
2023-01-09T00:01:05.929Z,3.80
2023-01-09T00:02:05.989Z,4.30
2023-01-09T00:03:05.918Z,3.90
2023-01-09T00:04:05.979Z,3.70
2023-01-09T00:05:05.858Z,3.40
2023-01-09T00:06:05.850Z,3.70
2023-01-09T00:07:05.839Z,3.80
2023-01-09T00:08:05.834Z,3.60
2023-01-09T00:09:05.827Z,3.50
2023-01-09T00:10:05.830Z,3.80
2023-01-09T00:11:05.810Z,3.80
2023-01-09T00:12:05.787Z,3.70
2023-01-09T00:13:05.762Z,3.70
2023-01-09T00:14:05.764Z,3.50
2023-01-09T00:15:05.736Z,3.90
2023-01-09T00:16:05.730Z,3.70
2023-01-09T00:17:05.736Z,3.70
2023-01-09T00:18:05.695Z,3.60
2023-01-09T00:19:05.690Z,3.40
2023-01-09T00:20:05.679Z,3.30
2023-01-09T00:21:05.660Z,3.90
2023-01-09T00:22:05.640Z,3.80
2023-01-09T00:23:05.645Z,3.60
2023-01-09T00:24:05.649Z,3.30
2023-01-09T00:25:05.611Z,3.40
2023-01-09T00:26:05.618Z,3.40
2023-01-09T00:27:05.586Z,3.30
2023-01-09T00:28:05.616Z,2.90
2023-01-09T00:29:05.548Z,3.50
2023-01-09T00:30:05.554Z,3.30
2023-01-09T00:31:05.593Z,3.20
2023-01-09T00:32:05.545Z,3.60
2023-01-09T00:33:05.521Z,3.50
2023-01-09T00:34:05.497Z,3.30
2023-01-09T00:35:05.491Z,3.40
2023-01-09T00:36:05.497Z,3.20
2023-01-09T00:37:05.475Z,3.10
2023-01-09T00:38:05.457Z,3.60
2023-01-09T00:39:05.426Z,3.20
2023-01-09T00:40:05.428Z,3.40
2023-01-09T00:41:05.393Z,3.60
2023-01-09T00:42:05.400Z,3.10
2023-01-09T00:43:05.386Z,3.00
2023-01-09T00:44:05.357Z,3.00
2023-01-09T00:45:05.375Z,3.10
2023-01-09T00:46:05.458Z,3.40
2023-01-09T00:47:05.341Z,3.00
2023-01-09T00:48:05.309Z,3.30
2023-01-09T00:49:05.293Z,3.10
2023-01-09T00:50:05.299Z,2.90
2023-01-09T00:51:05.316Z,3.10
2023-01-09T00:52:05.264Z,3.50
2023-01-09T00:53:05.281Z,3.80
2023-01-09T00:54:05.231Z,3.50
2023-01-09T00:55:05.262Z,3.00
2023-01-09T00:56:05.215Z,3.10
2023-01-09T00:57:05.194Z,3.40
2023-01-09T00:58:05.196Z,3.30
2023-01-09T00:59:05.174Z,3.20
2023-01-09T01:00:05.158Z,3.70
2023-01-09T01:01:05.255Z,3.60
2023-01-09T01:02:05.318Z,3.50
2023-01-09T01:03:05.131Z,3.50
2023-01-09T01:04:05.106Z,4.00
2023-01-09T01:05:05.087Z,3.70
2023-01-09T01:06:05.109Z,3.60
2023-01-09T01:07:05.083Z,3.80
2023-01-09T01:08:05.060Z,3.70
2023-01-09T01:09:05.060Z,3.80
2023-01-09T01:10:05.050Z,3.50
2023-01-09T01:11:05.040Z,3.60
2023-01-09T01:12:05.036Z,3.70
2023-01-09T01:13:04.995Z,4.00
2023-01-09T01:14:05.009Z,3.30
2023-01-09T01:15:04.996Z,3.60
2023-01-09T01:16:04.980Z,3.80
2023-01-09T01:17:04.961Z,3.90
2023-01-09T01:18:04.929Z,3.40
2023-01-09T01:19:04.921Z,3.60
2023-01-09T01:20:04.899Z,3.50
2023-01-09T01:21:04.897Z,3.60
2023-01-09T01:22:04.940Z,3.80
2023-01-09T01:23:04.877Z,3.10
2023-01-09T01:24:04.852Z,3.50
2023-01-09T01:25:04.831Z,3.40
2023-01-09T01:26:04.840Z,3.30
2023-01-09T01:27:04.829Z,4.00
2023-01-09T01:28:04.814Z,3.70
2023-01-09T01:29:04.815Z,3.60
2023-01-09T01:30:04.803Z,3.30
2023-01-09T01:31:04.866Z,3.70
2023-01-09T01:32:04.784Z,3.60
2023-01-09T01:33:04.762Z,3.90
2023-01-09T01:34:04.742Z,3.50
2023-01-09T01:35:04.796Z,3.40
2023-01-09T01:36:04.723Z,3.30
2023-01-09T01:37:04.699Z,3.50
2023-01-09T01:38:04.667Z,3.40
2023-01-09T01:39:04.658Z,3.20
2023-01-09T01:40:04.671Z,3.70
2023-01-09T01:41:04.630Z,3.50
2023-01-09T01:42:04.649Z,3.70
2023-01-09T01:43:04.617Z,3.30
2023-01-09T01:44:04.596Z,3.40
2023-01-09T01:45:04.587Z,3.20
2023-01-09T01:46:04.608Z,3.30
2023-01-09T01:47:04.578Z,3.30
2023-01-09T01:48:04.561Z,3.30
2023-01-09T01:49:04.525Z,3.00
2023-01-09T01:50:04.525Z,3.40
2023-01-09T01:51:04.510Z,3.20
2023-01-09T01:52:04.505Z,3.40
2023-01-09T01:53:04.478Z,3.30
2023-01-09T01:54:04.459Z,3.10
2023-01-09T01:55:04.442Z,3.00
2023-01-09T01:56:04.452Z,3.00
2023-01-09T01:57:04.454Z,3.10
2023-01-09T01:58:04.458Z,3.10
2023-01-09T01:59:04.416Z,3.10
2023-01-09T02:00:04.417Z,3.20
2023-01-09T02:01:04.424Z,3.20
2023-01-09T02:02:04.558Z,3.10
2023-01-09T02:03:04.389Z,2.90
2023-01-09T02:04:04.345Z,3.20
2023-01-09T02:05:04.315Z,3.00
2023-01-09T02:06:04.307Z,3.20
2023-01-09T02:07:04.301Z,3.30
2023-01-09T02:08:04.310Z,2.90
2023-01-09T02:09:04.277Z,3.10
2023-01-09T02:10:04.279Z,3.00
2023-01-09T02:11:04.237Z,2.80
2023-01-09T02:12:04.246Z,3.40
2023-01-09T02:13:04.236Z,2.90
2023-01-09T02:14:04.234Z,3.20
2023-01-09T02:15:04.177Z,3.30
2023-01-09T02:16:04.197Z,3.00
2023-01-09T02:17:04.189Z,2.90
2023-01-09T02:18:04.165Z,2.70
2023-01-09T02:19:04.130Z,3.10
2023-01-09T02:20:04.124Z,2.80
2023-01-09T02:21:04.132Z,3.00
2023-01-09T02:22:04.090Z,3.00
2023-01-09T02:23:04.101Z,2.90
2023-01-09T02:24:04.073Z,3.00
2023-01-09T02:25:04.044Z,2.90
2023-01-09T02:26:04.046Z,3.00
2023-01-09T02:27:04.028Z,2.60
2023-01-09T02:28:04.025Z,2.80
2023-01-09T02:29:04.002Z,2.90
2023-01-09T02:30:03.990Z,3.20
2023-01-09T02:31:03.974Z,2.70
2023-01-09T02:32:03.954Z,2.60
2023-01-09T02:33:03.966Z,2.70
2023-01-09T02:34:03.966Z,2.80
2023-01-09T02:35:03.926Z,2.90
2023-01-09T02:36:03.932Z,2.60
2023-01-09T02:37:03.897Z,2.80
2023-01-09T02:38:03.895Z,2.60
2023-01-09T02:39:03.901Z,2.50
2023-01-09T02:40:03.867Z,2.40
2023-01-09T02:41:03.887Z,2.90
2023-01-09T02:42:03.829Z,2.30
2023-01-09T02:43:03.835Z,2.50
2023-01-09T02:44:03.831Z,2.50
2023-01-09T02:45:03.811Z,2.40
2023-01-09T02:46:03.868Z,2.50
2023-01-09T02:47:03.783Z,2.60
2023-01-09T02:48:03.769Z,2.50
2023-01-09T02:49:03.741Z,2.40
2023-01-09T02:50:03.720Z,2.50
2023-01-09T02:51:03.718Z,2.30
2023-01-09T02:52:03.691Z,2.50
2023-01-09T02:53:03.693Z,2.30
2023-01-09T02:54:03.674Z,2.60
2023-01-09T02:55:03.699Z,2.10
2023-01-09T02:56:03.672Z,2.20
2023-01-09T02:57:03.642Z,2.40
2023-01-09T02:58:03.609Z,2.40
2023-01-09T02:59:03.669Z,2.20
2023-01-09T03:00:03.621Z,2.40
2023-01-09T03:01:03.682Z,2.60
2023-01-09T03:02:03.671Z,2.40
2023-01-09T03:03:03.744Z,2.60
2023-01-09T03:04:03.553Z,2.80
2023-01-09T03:05:03.547Z,2.50
2023-01-09T03:06:03.519Z,2.50
2023-01-09T03:07:03.507Z,2.50
2023-01-09T03:08:03.497Z,2.60
2023-01-09T03:09:03.471Z,2.40
2023-01-09T03:10:03.484Z,2.40
2023-01-09T03:11:03.467Z,2.60
2023-01-09T03:12:03.425Z,2.70
2023-01-09T03:13:03.420Z,2.70
2023-01-09T03:14:03.426Z,2.30
2023-01-09T03:15:03.397Z,2.30
2023-01-09T03:16:03.428Z,2.60
2023-01-09T03:17:03.394Z,3.00
2023-01-09T03:18:03.355Z,3.00
2023-01-09T03:19:03.348Z,2.60
2023-01-09T03:20:03.338Z,2.80
2023-01-09T03:21:03.323Z,2.60
2023-01-09T03:22:03.324Z,2.90
2023-01-09T03:23:03.305Z,3.00
2023-01-09T03:24:03.282Z,3.10
2023-01-09T03:25:03.292Z,2.90
2023-01-09T03:26:03.250Z,2.70
2023-01-09T03:27:03.267Z,2.90
2023-01-09T03:28:03.225Z,2.80
2023-01-09T03:29:03.212Z,3.10
2023-01-09T03:30:03.223Z,3.20
2023-01-09T03:31:03.206Z,3.00
2023-01-09T03:32:03.169Z,3.20
2023-01-09T03:33:03.168Z,3.50
2023-01-09T03:34:03.148Z,3.00
2023-01-09T03:35:03.161Z,3.30
2023-01-09T03:36:03.122Z,2.80
2023-01-09T03:37:03.114Z,3.10
2023-01-09T03:38:03.100Z,3.30
2023-01-09T03:39:03.100Z,3.00
2023-01-09T03:40:03.108Z,3.00
2023-01-09T03:41:03.078Z,3.40
2023-01-09T03:42:03.058Z,3.00
2023-01-09T03:43:03.052Z,3.30
2023-01-09T03:44:03.029Z,3.50
2023-01-09T03:45:03.034Z,3.20
2023-01-09T03:46:03.050Z,3.20
2023-01-09T03:47:02.986Z,3.20
2023-01-09T03:48:02.969Z,3.10
2023-01-09T03:49:02.985Z,2.90
2023-01-09T03:50:02.943Z,3.30
2023-01-09T03:51:02.939Z,3.00
2023-01-09T03:52:02.922Z,3.00
2023-01-09T03:53:02.912Z,3.10
2023-01-09T03:54:02.891Z,3.00
2023-01-09T03:55:02.926Z,2.90
2023-01-09T03:56:02.876Z,3.40
2023-01-09T03:57:02.849Z,3.20
2023-01-09T03:58:02.851Z,3.10
2023-01-09T03:59:02.828Z,3.00
2023-01-09T04:00:02.819Z,3.30
2023-01-09T04:01:03.020Z,3.20
2023-01-09T04:02:03.995Z,3.40
2023-01-09T04:03:02.776Z,3.30
2023-01-09T04:04:02.819Z,3.40
2023-01-09T04:05:02.741Z,3.20
2023-01-09T04:06:02.737Z,3.00
2023-01-09T04:07:02.727Z,2.90
2023-01-09T04:08:02.708Z,2.60
2023-01-09T04:09:02.711Z,2.90
2023-01-09T04:10:02.678Z,2.80
2023-01-09T04:11:02.692Z,2.80
2023-01-09T04:12:02.681Z,2.70
2023-01-09T04:13:02.637Z,2.20
2023-01-09T04:14:02.624Z,2.40
2023-01-09T04:15:02.610Z,2.00
2023-01-09T04:16:02.642Z,2.00
2023-01-09T04:17:02.593Z,1.80
2023-01-09T04:18:02.570Z,1.70
2023-01-09T04:19:02.567Z,1.60
2023-01-09T04:20:02.543Z,1.50
2023-01-09T04:21:02.556Z,1.60
2023-01-09T04:22:02.524Z,1.60
2023-01-09T04:23:02.512Z,1.90
2023-01-09T04:24:02.508Z,1.60
2023-01-09T04:25:02.485Z,1.50
2023-01-09T04:26:02.461Z,1.60
2023-01-09T04:27:02.492Z,1.40
2023-01-09T04:28:02.439Z,1.30
2023-01-09T04:29:02.442Z,1.10
2023-01-09T04:30:02.410Z,1.30
2023-01-09T04:31:02.404Z,1.10
2023-01-09T04:32:02.418Z,1.20
2023-01-09T04:33:02.400Z,1.30
2023-01-09T04:34:02.379Z,1.30
2023-01-09T04:35:02.366Z,1.10
2023-01-09T04:36:02.339Z,0.80
2023-01-09T04:37:02.316Z,0.70
2023-01-09T04:38:02.325Z,1.00
2023-01-09T04:39:02.297Z,0.60
2023-01-09T04:40:02.302Z,0.80
2023-01-09T04:41:02.291Z,0.70
2023-01-09T04:42:02.253Z,0.80
2023-01-09T04:43:02.260Z,0.50
2023-01-09T04:44:02.251Z,0.50
2023-01-09T04:45:02.224Z,0.80
2023-01-09T04:46:02.242Z,0.70
2023-01-09T04:47:02.230Z,0.60
2023-01-09T04:48:02.209Z,0.50
2023-01-09T04:49:02.179Z,0.80
2023-01-09T04:50:02.157Z,0.40
2023-01-09T04:51:02.139Z,0.30
2023-01-09T04:52:02.127Z,0.50
2023-01-09T04:53:02.153Z,0.30
2023-01-09T04:54:02.096Z,0.60
2023-01-09T04:55:02.093Z,0.40
2023-01-09T04:56:02.098Z,0.40
2023-01-09T04:57:02.075Z,0.40
2023-01-09T04:58:02.038Z,0.50
2023-01-09T04:59:02.049Z,0.30
2023-01-09T05:00:02.040Z,0.30
2023-01-09T05:01:02.222Z,0.30
2023-01-09T05:02:02.209Z,0.40
2023-01-09T05:03:01.990Z,0.40
2023-01-09T05:04:02.057Z,0.30
2023-01-09T05:05:01.960Z,0.40
2023-01-09T05:06:01.967Z,0.20
2023-01-09T05:07:01.960Z,0.20
2023-01-09T05:08:01.937Z,0.30
2023-01-09T05:09:01.930Z,0.40
2023-01-09T05:10:01.904Z,0.20
2023-01-09T05:11:01.905Z,0.30
2023-01-09T05:12:02.054Z,0.20
2023-01-09T05:13:01.879Z,0.20
2023-01-09T05:14:01.845Z,0.20
2023-01-09T05:15:01.844Z,0.10
2023-01-09T05:16:01.809Z,0.20
2023-01-09T05:17:01.802Z,0.20
2023-01-09T05:18:01.797Z,0.30
2023-01-09T05:19:01.787Z,0.10
2023-01-09T05:20:01.773Z,0.00
2023-01-09T05:21:01.752Z,0.10
2023-01-09T05:22:01.753Z,0.30
2023-01-09T05:23:01.735Z,0.10
2023-01-09T05:24:01.711Z,0.20
2023-01-09T05:25:01.741Z,0.10
2023-01-09T05:26:01.694Z,0.20
2023-01-09T05:27:01.676Z,0.20
2023-01-09T05:28:01.684Z,0.10
2023-01-09T05:29:01.648Z,0.10
2023-01-09T05:30:01.651Z,0.20
2023-01-09T05:31:01.640Z,0.10
2023-01-09T05:32:01.609Z,0.30
2023-01-09T05:33:01.604Z,0.20
2023-01-09T05:34:01.596Z,0.20
2023-01-09T05:35:01.635Z,0.20
2023-01-09T05:36:01.576Z,0.10
2023-01-09T05:37:01.561Z,0.10
2023-01-09T05:38:01.533Z,0.10
2023-01-09T05:39:01.528Z,0.10
2023-01-09T05:40:01.549Z,0.10
2023-01-09T05:41:01.525Z,0.10
2023-01-09T05:42:01.497Z,0.30
2023-01-09T05:43:01.476Z,0.10
2023-01-09T05:44:01.465Z,0.10
2023-01-09T05:45:01.467Z,0.10
2023-01-09T05:46:01.465Z,0.10
2023-01-09T05:47:02.870Z,0.10
2023-01-09T05:48:01.423Z,0.10
2023-01-09T05:49:01.386Z,0.00
2023-01-09T05:50:01.379Z,0.10
2023-01-09T05:51:01.385Z,0.00
2023-01-09T05:52:01.352Z,0.10
2023-01-09T05:53:01.338Z,0.10
2023-01-09T05:54:01.324Z,0.10
2023-01-09T05:55:01.351Z,0.10
2023-01-09T05:56:01.321Z,0.10
2023-01-09T05:57:01.296Z,0.00
2023-01-09T05:58:01.357Z,0.10
2023-01-09T05:59:01.296Z,0.10
2023-01-09T06:00:01.311Z,0.10
2023-01-09T06:01:01.273Z,0.00
2023-01-09T06:02:01.257Z,0.00
2023-01-09T06:03:01.275Z,0.10
2023-01-09T06:04:01.188Z,0.10
2023-01-09T06:05:01.197Z,0.10
2023-01-09T06:06:01.185Z,0.10
2023-01-09T06:07:01.163Z,0.10
2023-01-09T06:08:01.167Z,0.00
2023-01-09T06:09:01.171Z,0.10
2023-01-09T06:10:01.123Z,0.10
2023-01-09T06:11:01.102Z,0.20
2023-01-09T06:12:01.085Z,0.10
2023-01-09T06:13:01.097Z,0.40
2023-01-09T06:14:01.059Z,0.10
2023-01-09T06:15:01.062Z,0.10
2023-01-09T06:16:01.129Z,0.00
2023-01-09T06:17:01.048Z,0.10
2023-01-09T06:18:01.013Z,0.00
2023-01-09T06:19:00.998Z,0.10
2023-01-09T06:20:00.992Z,0.10
2023-01-09T06:21:01.030Z,0.00
2023-01-09T06:22:00.955Z,0.20
2023-01-09T06:23:00.953Z,0.10
2023-01-09T06:24:00.940Z,0.10
2023-01-09T06:25:00.949Z,0.00
2023-01-09T06:26:00.914Z,0.00
2023-01-09T06:27:00.904Z,0.10
2023-01-09T06:28:00.898Z,0.10
2023-01-09T06:29:00.861Z,0.00
2023-01-09T06:30:00.854Z,0.00
2023-01-09T06:31:00.956Z,0.20
2023-01-09T06:32:00.846Z,0.00
2023-01-09T06:33:00.827Z,0.10
2023-01-09T06:34:00.803Z,0.00
2023-01-09T06:35:00.790Z,0.00
2023-01-09T06:36:00.769Z,0.10
2023-01-09T06:37:00.758Z,0.10
2023-01-09T06:38:00.750Z,0.00
2023-01-09T06:39:00.775Z,0.00
2023-01-09T06:40:00.735Z,0.10
2023-01-09T06:41:00.739Z,0.10
2023-01-09T06:42:00.690Z,0.10
2023-01-09T06:43:00.697Z,0.10
2023-01-09T06:44:00.659Z,0.00
2023-01-09T06:45:00.690Z,0.10
2023-01-09T06:46:00.670Z,0.20
2023-01-09T06:47:00.643Z,0.10
2023-01-09T06:48:00.614Z,0.10
2023-01-09T06:49:00.608Z,0.10
2023-01-09T06:50:00.590Z,0.10
2023-01-09T06:51:00.582Z,0.10
2023-01-09T06:52:00.563Z,0.10
2023-01-09T06:53:00.602Z,0.10
2023-01-09T06:54:00.556Z,0.10
2023-01-09T06:55:00.540Z,0.00
2023-01-09T06:56:00.531Z,0.00
2023-01-09T06:57:00.496Z,0.10
2023-01-09T06:58:00.475Z,0.10
2023-01-09T06:59:00.504Z,0.10
2023-01-09T07:00:00.482Z,0.00
2023-01-09T07:01:00.585Z,0.00
2023-01-09T07:02:00.487Z,0.10
2023-01-09T07:03:00.421Z,0.10
2023-01-09T07:04:00.539Z,0.00
2023-01-09T07:05:00.397Z,0.10
2023-01-09T07:06:00.371Z,0.00
2023-01-09T07:07:00.373Z,0.10
2023-01-09T07:08:00.345Z,0.10
2023-01-09T07:09:00.330Z,0.10
2023-01-09T07:10:00.347Z,0.10
2023-01-09T07:11:00.313Z,0.00
2023-01-09T07:12:00.308Z,0.10
2023-01-09T07:13:00.285Z,0.10
2023-01-09T07:14:00.277Z,0.00
2023-01-09T07:15:00.271Z,0.10
2023-01-09T07:16:00.286Z,0.10
2023-01-09T07:17:00.254Z,0.10
2023-01-09T07:18:00.266Z,0.10
2023-01-09T07:19:00.199Z,0.10
2023-01-09T07:20:00.214Z,0.00
2023-01-09T07:21:00.172Z,0.00
2023-01-09T07:22:00.168Z,0.00
2023-01-09T07:23:00.148Z,0.00
2023-01-09T07:24:00.143Z,0.00
2023-01-09T07:25:00.150Z,0.10
2023-01-09T07:26:00.125Z,0.00
2023-01-09T07:27:00.099Z,0.10
2023-01-09T07:28:00.113Z,0.10
2023-01-09T07:29:00.111Z,0.10
2023-01-09T07:30:00.086Z,0.10
2023-01-09T07:31:00.121Z,0.10
2023-01-09T07:32:00.055Z,0.00
2023-01-09T07:33:01.053Z,0.10
2023-01-09T07:34:00.004Z,0.00
2023-01-09T07:35:00.008Z,0.10
2023-01-09T07:35:59.985Z,0.10
2023-01-09T07:36:59.978Z,0.00
2023-01-09T07:37:59.973Z,0.10
2023-01-09T07:38:59.938Z,0.10
2023-01-09T07:39:59.932Z,0.10
2023-01-09T07:40:59.921Z,0.10
2023-01-09T07:41:59.907Z,0.20
2023-01-09T07:42:59.884Z,0.20
2023-01-09T07:43:59.869Z,0.10
2023-01-09T07:44:59.864Z,0.20
2023-01-09T07:45:59.900Z,0.20
2023-01-09T07:46:59.842Z,0.20
2023-01-09T07:47:59.822Z,0.10
2023-01-09T07:48:59.841Z,0.10
2023-01-09T07:49:59.796Z,0.10
2023-01-09T07:50:59.777Z,0.10
2023-01-09T07:51:59.794Z,0.00
2023-01-09T07:52:59.759Z,0.10
2023-01-09T07:53:59.744Z,0.20
2023-01-09T07:54:59.739Z,0.00
2023-01-09T07:55:59.733Z,0.10
2023-01-09T07:56:59.696Z,0.10
2023-01-09T07:57:59.722Z,0.20
2023-01-09T07:58:59.684Z,0.00
2023-01-09T07:59:59.657Z,0.00
2023-01-09T08:00:59.659Z,0.10
2023-01-09T08:01:59.688Z,0.20
2023-01-09T08:02:59.679Z,0.10
2023-01-09T08:03:59.610Z,0.00
2023-01-09T08:04:59.597Z,0.10
2023-01-09T08:05:59.582Z,0.10
2023-01-09T08:06:59.582Z,0.20
2023-01-09T08:07:59.574Z,0.10
2023-01-09T08:08:59.542Z,0.10
2023-01-09T08:09:59.527Z,0.10
2023-01-09T08:10:59.512Z,0.10
2023-01-09T08:11:59.509Z,0.00
2023-01-09T08:12:59.502Z,0.10
2023-01-09T08:13:59.504Z,0.10
2023-01-09T08:14:59.476Z,0.00
2023-01-09T08:15:59.525Z,0.10
2023-01-09T08:16:59.429Z,0.10
2023-01-09T08:17:59.441Z,0.10
2023-01-09T08:18:59.418Z,0.10
2023-01-09T08:19:59.394Z,0.20
2023-01-09T08:20:59.384Z,0.20
2023-01-09T08:21:59.403Z,0.10
2023-01-09T08:22:59.366Z,0.10
2023-01-09T08:23:59.359Z,0.10
2023-01-09T08:24:59.323Z,0.20
2023-01-09T08:25:59.326Z,0.10
2023-01-09T08:26:59.305Z,0.20
2023-01-09T08:27:59.316Z,0.20
2023-01-09T08:28:59.294Z,0.20
2023-01-09T08:29:59.277Z,0.20
2023-01-09T08:30:59.253Z,0.10
2023-01-09T08:31:59.240Z,0.20
2023-01-09T08:32:59.240Z,0.30
2023-01-09T08:33:59.241Z,0.10
2023-01-09T08:34:59.238Z,0.10
2023-01-09T08:35:59.243Z,0.10
2023-01-09T08:36:59.177Z,0.20
2023-01-09T08:37:59.168Z,0.30
2023-01-09T08:38:59.157Z,0.20
2023-01-09T08:39:59.135Z,0.20
2023-01-09T08:40:59.122Z,0.10
2023-01-09T08:41:59.108Z,0.10
2023-01-09T08:42:59.095Z,0.10
2023-01-09T08:43:59.188Z,0.10
2023-01-09T08:44:59.066Z,0.10
2023-01-09T08:45:59.060Z,0.30
2023-01-09T08:46:59.036Z,0.20
2023-01-09T08:47:59.035Z,0.10
2023-01-09T08:48:59.016Z,0.20
2023-01-09T08:49:59.014Z,0.30
2023-01-09T08:50:59.003Z,0.20
2023-01-09T08:51:58.977Z,0.10
2023-01-09T08:52:58.963Z,0.10
2023-01-09T08:53:58.959Z,0.20
2023-01-09T08:54:58.949Z,0.30
2023-01-09T08:55:58.934Z,0.20
2023-01-09T08:56:58.925Z,0.20
2023-01-09T08:57:58.890Z,0.20
2023-01-09T08:58:58.882Z,0.10
2023-01-09T08:59:58.876Z,0.20
2023-01-09T09:00:58.868Z,0.30
2023-01-09T09:01:58.918Z,0.30
2023-01-09T09:02:58.903Z,0.20
2023-01-09T09:03:58.847Z,0.30
2023-01-09T09:04:58.811Z,0.30
2023-01-09T09:05:58.785Z,0.30
2023-01-09T09:06:58.787Z,0.40
2023-01-09T09:07:58.766Z,0.20
2023-01-09T09:08:58.768Z,0.20
2023-01-09T09:09:59.017Z,0.30
2023-01-09T09:10:58.714Z,0.20
2023-01-09T09:11:58.759Z,0.10
2023-01-09T09:12:58.694Z,0.20
2023-01-09T09:13:58.708Z,0.30
2023-01-09T09:14:58.697Z,0.20
2023-01-09T09:15:58.743Z,0.30
2023-01-09T09:16:58.663Z,0.30
2023-01-09T09:17:58.654Z,0.30
2023-01-09T09:18:58.620Z,0.40
2023-01-09T09:19:58.610Z,0.20
2023-01-09T09:20:58.604Z,0.30
2023-01-09T09:21:58.608Z,0.20
2023-01-09T09:22:58.565Z,0.20
2023-01-09T09:23:58.549Z,0.20
2023-01-09T09:24:58.535Z,0.20
2023-01-09T09:25:58.536Z,0.20
2023-01-09T09:26:58.515Z,0.30
2023-01-09T09:27:58.509Z,0.30
2023-01-09T09:28:58.486Z,0.30
2023-01-09T09:29:58.485Z,0.30
2023-01-09T09:30:58.512Z,0.40
2023-01-09T09:32:00.681Z,0.30
2023-01-09T09:32:58.455Z,0.90
2023-01-09T09:33:58.416Z,0.20
2023-01-09T09:34:58.409Z,0.30
2023-01-09T09:35:58.393Z,0.40
2023-01-09T09:36:58.441Z,0.50
2023-01-09T09:37:58.388Z,0.20
2023-01-09T09:38:58.348Z,0.30
2023-01-09T09:40:01.457Z,0.30
2023-01-09T09:40:58.418Z,0.30
2023-01-09T09:41:58.344Z,0.40
2023-01-09T09:42:58.324Z,0.40
2023-01-09T09:43:58.322Z,0.40
2023-01-09T09:44:58.279Z,0.20
2023-01-09T09:45:58.324Z,0.20
2023-01-09T09:46:58.259Z,0.50
2023-01-09T09:47:58.244Z,0.30
2023-01-09T09:48:58.227Z,0.30
2023-01-09T09:49:58.220Z,0.50
2023-01-09T09:50:58.200Z,0.60
2023-01-09T09:51:58.198Z,0.30
2023-01-09T09:52:58.186Z,0.30
2023-01-09T09:53:58.159Z,0.20
2023-01-09T09:54:58.152Z,0.40
2023-01-09T09:55:58.167Z,0.30
2023-01-09T09:56:58.144Z,0.40
2023-01-09T09:57:58.132Z,0.30
2023-01-09T09:58:58.105Z,0.30
2023-01-09T09:59:58.102Z,0.30
2023-01-09T10:00:58.074Z,0.40
2023-01-09T10:01:58.081Z,0.60
2023-01-09T10:02:58.097Z,0.40
2023-01-09T10:03:58.120Z,0.40
2023-01-09T10:04:58.035Z,0.30
2023-01-09T10:05:58.027Z,0.30
2023-01-09T10:06:58.025Z,0.30
2023-01-09T10:08:01.335Z,0.30
2023-01-09T10:08:57.982Z,0.40
2023-01-09T10:09:57.961Z,0.40
2023-01-09T10:10:57.959Z,0.20
2023-01-09T10:11:57.970Z,0.30
2023-01-09T10:12:57.956Z,0.40
2023-01-09T10:13:57.919Z,0.30
2023-01-09T10:14:57.898Z,0.40
2023-01-09T10:15:57.967Z,0.40
2023-01-09T10:16:57.887Z,0.30
2023-01-09T10:17:57.864Z,0.20
2023-01-09T10:18:57.846Z,0.40
2023-01-09T10:19:57.883Z,0.40
2023-01-09T10:20:57.819Z,0.50
2023-01-09T10:21:57.813Z,0.40
2023-01-09T10:22:57.805Z,0.30
2023-01-09T10:23:57.782Z,0.40
2023-01-09T10:24:57.766Z,0.30
2023-01-09T10:25:57.752Z,0.50
2023-01-09T10:26:57.778Z,0.40
2023-01-09T10:27:57.732Z,0.30
2023-01-09T10:28:57.709Z,0.50
2023-01-09T10:29:57.715Z,0.20
2023-01-09T10:30:57.700Z,0.80
2023-01-09T10:31:57.686Z,0.70
2023-01-09T10:32:57.673Z,0.50
2023-01-09T10:33:57.648Z,0.40
2023-01-09T10:34:57.656Z,0.20
2023-01-09T10:35:57.685Z,0.60
2023-01-09T10:36:57.629Z,0.40
2023-01-09T10:37:57.609Z,0.20
2023-01-09T10:38:57.583Z,0.40
2023-01-09T10:39:57.607Z,0.50
2023-01-09T10:41:01.457Z,0.80
2023-01-09T10:41:57.565Z,0.30
2023-01-09T10:42:57.541Z,0.30
2023-01-09T10:43:57.577Z,0.60
2023-01-09T10:44:57.516Z,0.60
2023-01-09T10:45:57.492Z,0.50
2023-01-09T10:46:57.550Z,0.30
2023-01-09T10:47:57.482Z,0.50
2023-01-09T10:48:57.482Z,0.80
2023-01-09T10:49:57.470Z,0.30
2023-01-09T10:50:57.463Z,0.60
2023-01-09T10:51:57.565Z,0.40
2023-01-09T10:52:57.403Z,0.40
2023-01-09T10:53:57.416Z,0.60
2023-01-09T10:54:57.377Z,0.70
2023-01-09T10:55:57.370Z,0.40
2023-01-09T10:56:57.401Z,0.50
2023-01-09T10:57:57.350Z,0.70
2023-01-09T10:58:57.373Z,0.40
2023-01-09T10:59:57.306Z,0.40
2023-01-09T11:00:57.308Z,0.40
2023-01-09T11:01:57.323Z,0.40
2023-01-09T11:02:57.288Z,0.50
2023-01-09T11:03:57.261Z,0.40
2023-01-09T11:04:57.269Z,0.50
2023-01-09T11:05:57.239Z,0.60
2023-01-09T11:06:57.216Z,0.40
2023-01-09T11:07:57.210Z,0.60
2023-01-09T11:08:57.205Z,0.50
2023-01-09T11:09:57.390Z,0.70
2023-01-09T11:10:57.176Z,1.10
2023-01-09T11:11:57.151Z,0.60
2023-01-09T11:12:57.135Z,0.30
2023-01-09T11:13:57.128Z,0.40
2023-01-09T11:14:57.139Z,0.60
2023-01-09T11:15:57.123Z,0.80
2023-01-09T11:16:57.092Z,0.50
2023-01-09T11:17:57.073Z,0.50
2023-01-09T11:18:57.064Z,0.60
2023-01-09T11:19:57.065Z,0.60
2023-01-09T11:20:57.043Z,0.60
2023-01-09T11:21:57.026Z,0.80
2023-01-09T11:22:57.036Z,1.10
2023-01-09T11:23:56.995Z,0.60
2023-01-09T11:24:56.990Z,0.80
2023-01-09T11:25:56.989Z,0.80
2023-01-09T11:26:56.975Z,0.60
2023-01-09T11:27:56.947Z,0.60
2023-01-09T11:28:56.932Z,0.60
2023-01-09T11:29:56.924Z,0.60
2023-01-09T11:30:56.935Z,0.50
2023-01-09T11:31:56.925Z,0.40
2023-01-09T11:32:56.888Z,0.60
2023-01-09T11:33:56.867Z,0.40
2023-01-09T11:34:56.860Z,0.30
2023-01-09T11:35:56.868Z,0.50
2023-01-09T11:36:56.871Z,0.40
2023-01-09T11:37:56.809Z,5.70
2023-01-09T11:38:56.820Z,5.40
2023-01-09T11:39:56.789Z,2.10
2023-01-09T11:40:56.774Z,1.10
2023-01-09T11:41:56.769Z,0.70
2023-01-09T11:42:56.752Z,0.30
2023-01-09T11:43:56.729Z,0.60
2023-01-09T11:44:56.720Z,0.60
2023-01-09T11:46:01.414Z,0.70
2023-01-09T11:46:56.773Z,0.40
2023-01-09T11:47:56.687Z,0.40
2023-01-09T11:48:56.705Z,0.30
2023-01-09T11:49:56.659Z,0.40
2023-01-09T11:50:56.659Z,0.30
2023-01-09T11:51:56.637Z,0.50
2023-01-09T11:52:56.614Z,0.40
2023-01-09T11:53:56.611Z,0.40
2023-01-09T11:54:56.624Z,0.30
2023-01-09T11:55:56.574Z,0.40
2023-01-09T11:56:56.571Z,0.30
2023-01-09T11:57:56.598Z,0.40
2023-01-09T11:58:56.537Z,0.70
2023-01-09T11:59:56.522Z,0.40
2023-01-09T12:00:56.518Z,0.70
2023-01-09T12:01:56.543Z,0.50
2023-01-09T12:02:56.543Z,0.30
2023-01-09T12:03:56.466Z,0.40
2023-01-09T12:04:56.460Z,0.50
2023-01-09T12:05:56.445Z,0.20
2023-01-09T12:06:56.432Z,0.40
2023-01-09T12:07:56.434Z,0.40
2023-01-09T12:08:56.413Z,0.40
2023-01-09T12:09:56.391Z,0.30
2023-01-09T12:10:56.399Z,0.40
2023-01-09T12:11:56.364Z,0.40
2023-01-09T12:12:56.351Z,0.60
2023-01-09T12:13:56.336Z,0.30
2023-01-09T12:14:56.334Z,0.40
2023-01-09T12:15:56.311Z,0.50
2023-01-09T12:16:56.297Z,0.30
2023-01-09T12:17:56.278Z,0.50
2023-01-09T12:18:56.291Z,0.80
2023-01-09T12:19:56.255Z,0.60
2023-01-09T12:20:56.247Z,0.40
2023-01-09T12:21:56.232Z,0.30
2023-01-09T12:22:56.218Z,0.30
2023-01-09T12:23:56.224Z,0.40
2023-01-09T12:24:56.195Z,0.40
2023-01-09T12:25:56.202Z,0.50
2023-01-09T12:26:56.173Z,0.50
2023-01-09T12:27:56.161Z,0.50
2023-01-09T12:28:56.140Z,0.40
2023-01-09T12:29:56.143Z,0.60
2023-01-09T12:30:56.124Z,0.60
2023-01-09T12:31:56.128Z,0.50
2023-01-09T12:32:56.094Z,0.40
2023-01-09T12:33:56.080Z,0.50
2023-01-09T12:34:56.071Z,0.40
2023-01-09T12:35:56.061Z,0.30
2023-01-09T12:36:56.138Z,0.40
2023-01-09T12:37:56.044Z,0.30
2023-01-09T12:38:56.042Z,0.40
2023-01-09T12:39:56.011Z,0.40
2023-01-09T12:40:55.988Z,0.50
2023-01-09T12:41:55.991Z,0.40
2023-01-09T12:42:55.971Z,0.30
2023-01-09T12:43:55.964Z,0.40
2023-01-09T12:44:55.947Z,0.30
2023-01-09T12:45:55.961Z,0.70
2023-01-09T12:46:55.907Z,0.40
2023-01-09T12:47:55.896Z,0.20
2023-01-09T12:48:55.894Z,0.40
2023-01-09T12:49:55.879Z,0.40
2023-01-09T12:50:55.882Z,0.30
2023-01-09T12:51:55.843Z,0.50
2023-01-09T12:52:55.828Z,0.30
2023-01-09T12:53:55.811Z,0.50
2023-01-09T12:54:55.819Z,0.30
2023-01-09T12:55:55.802Z,0.60
2023-01-09T12:56:55.798Z,0.30
2023-01-09T12:57:55.758Z,0.50
2023-01-09T12:58:55.748Z,0.50
2023-01-09T12:59:55.737Z,0.40
2023-01-09T13:00:55.781Z,0.50
2023-01-09T13:01:55.721Z,0.60
2023-01-09T13:03:07.213Z,0.60
2023-01-09T13:03:55.685Z,0.40
2023-01-09T13:04:55.666Z,0.50
2023-01-09T13:05:55.663Z,0.40
2023-01-09T13:06:55.638Z,0.40
2023-01-09T13:07:55.631Z,0.70
2023-01-09T13:08:55.620Z,0.50
2023-01-09T13:09:55.610Z,0.70
2023-01-09T13:10:55.603Z,0.50
2023-01-09T13:11:55.576Z,0.50
2023-01-09T13:12:55.569Z,0.70
2023-01-09T13:13:55.546Z,0.50
2023-01-09T13:14:55.539Z,0.20
2023-01-09T13:15:55.560Z,0.50
2023-01-09T13:16:55.547Z,0.30
2023-01-09T13:17:55.505Z,0.50